Time;durP1;ratioP1;P1;durP2;ratioP2;P2;SDS_P1;SDS_P2;PMS_P1;PMS_P2;Temp;Humidity;BMP_temperature;BMP_pressure;BME280_temperature;BME280_humidity;BME280_pressure;Samples;Min_cycle;Max_cycle;Signal;HPM_P1;HPM_P2
2023/06/19 00:03:01;;;;;;;;;;;;;;;23.07;36.68;95395.09;10303522;28;1995;-66
2023/06/19 00:08:04;;;;;;;;;;;;;;;23.05;36.72;95387.47;10300102;28;1939;-66
2023/06/19 00:13:04;;;;;;;;;;;;;;;23.03;36.44;95383.56;10305719;28;1925;-67
2023/06/19 00:18:06;;;;;;;;;;;;;;;23.03;36.46;95383.56;10300389;28;2282;-67
2023/06/19 00:23:10;;;;;;;;;;;;;;;22.99;36.80;95380.72;10308866;28;1831;-67
2023/06/19 00:28:13;;;;;;;;;;;;;;;22.99;36.46;95375.44;10302257;28;1906;-67
2023/06/19 00:33:14;;;;;;;;;;;;;;;22.97;36.79;95379.47;10297541;28;2064;-67
2023/06/19 00:38:14;;;;;;;;;;;;;;;22.95;36.68;95382.41;10301841;28;2133;-67
2023/06/19 00:43:14;;;;;;;;;;;;;;;22.92;36.84;95382.19;10300013;28;4569;-67
2023/06/19 00:48:14;;;;;;;;;;;;;;;22.93;37.08;95383.78;10303598;28;2076;-67
2023/06/19 00:53:15;;;;;;;;;;;;;;;22.93;37.27;95389.84;10281079;28;2025;-67
2023/06/19 00:58:15;;;;;;;;;;;;;;;22.93;37.08;95391.69;10307829;28;2054;-67
2023/06/19 01:03:15;;;;;;;;;;;;;;;22.92;37.45;95388.28;10301770;28;2358;-67
2023/06/19 01:08:18;;;;;;;;;;;;;;;22.92;37.60;95400.69;10296617;28;2128;-67
2023/06/19 01:13:34;;;;;;;;;;;;;;;22.90;37.35;95402.84;10296031;28;2275;-67
2023/06/19 01:18:34;;;;;;;;;;;;;;;22.90;37.68;95400.22;10297945;28;1972;-67
2023/06/19 01:23:34;;;;;;;;;;;;;;;22.92;37.50;95405.97;10302223;28;2169;-67
2023/06/19 01:28:37;;;;;;;;;;;;;;;22.91;37.73;95401.78;10301946;28;1985;-67
2023/06/19 01:33:37;;;;;;;;;;;;;;;22.90;37.83;95400.22;10302732;28;2201;-67
2023/06/19 01:38:38;;;;;;;;;;;;;;;22.92;37.82;95403.34;10295937;28;1975;-67
2023/06/19 01:43:38;;;;;;;;;;;;;;;22.93;37.89;95402.28;10286519;28;4536;-67
2023/06/19 01:48:38;;;;;;;;;;;;;;;22.93;37.79;95397.00;10301426;28;2086;-67
2023/06/19 01:53:38;;;;;;;;;;;;;;;22.92;37.69;95398.06;10305406;28;1917;-66
2023/06/19 01:58:39;;;;;;;;;;;;;;;22.91;37.82;95393.88;10301756;28;2054;-67
2023/06/19 02:03:39;;;;;;;;;;;;;;;22.91;37.93;95391.22;10303898;28;1971;-67
2023/06/19 02:08:39;;;;;;;;;;;;;;;22.91;38.17;95385.94;10303978;28;2364;-67
2023/06/19 02:13:40;;;;;;;;;;;;;;;22.94;38.09;95394.03;10308702;28;2020;-67
2023/06/19 02:18:40;;;;;;;;;;;;;;;22.93;38.25;95394.34;10310275;28;2074;-67
2023/06/19 02:23:40;;;;;;;;;;;;;;;22.94;38.17;95390.59;10310681;28;2048;-66
2023/06/19 02:28:40;;;;;;;;;;;;;;;22.92;38.30;95392.75;10307835;28;2102;-67
2023/06/19 02:33:41;;;;;;;;;;;;;;;22.88;38.16;95391.78;10303875;28;2059;-67
2023/06/19 02:38:42;;;;;;;;;;;;;;;22.88;38.17;95397.09;10309146;28;1968;-67
2023/06/19 02:43:43;;;;;;;;;;;;;;;22.85;38.55;95398.47;10304469;28;4495;-67
2023/06/19 02:48:43;;;;;;;;;;;;;;;22.84;38.77;95390.81;10303121;28;2302;-67
2023/06/19 02:53:44;;;;;;;;;;;;;;;22.82;38.61;95393.78;10308008;28;1912;-67
2023/06/19 02:58:44;;;;;;;;;;;;;;;22.80;38.91;95400.41;10303362;28;1940;-67
2023/06/19 03:03:46;;;;;;;;;;;;;;;22.79;39.05;95394.38;10306712;28;2429;-67
2023/06/19 03:08:46;;;;;;;;;;;;;;;22.79;39.12;95398.88;10306408;28;2298;-68
2023/06/19 03:13:47;;;;;;;;;;;;;;;22.80;39.00;95403.06;10308100;28;2000;-68
2023/06/19 03:18:48;;;;;;;;;;;;;;;22.79;39.33;95404.16;10297506;28;1983;-68
2023/06/19 03:23:48;;;;;;;;;;;;;;;22.77;39.33;95412.38;10303705;28;2017;-68
2023/06/19 03:28:48;;;;;;;;;;;;;;;22.77;39.71;95425.59;10304137;28;2108;-67
2023/06/19 03:33:49;;;;;;;;;;;;;;;22.75;39.65;95429.59;10304726;28;1981;-68
2023/06/19 03:38:49;;;;;;;;;;;;;;;22.72;40.07;95430.19;10302057;28;2013;-68
2023/06/19 03:43:49;;;;;;;;;;;;;;;22.76;40.11;95431.16;10301920;28;4487;-67
2023/06/19 03:48:49;;;;;;;;;;;;;;;22.75;40.27;95446.22;10303135;28;2105;-67
2023/06/19 03:53:50;;;;;;;;;;;;;;;22.74;40.13;95449.16;10307742;28;1909;-66
2023/06/19 03:58:50;;;;;;;;;;;;;;;22.74;40.34;95451.81;10301104;28;2217;-68
2023/06/19 04:03:50;;;;;;;;;;;;;;;22.71;40.38;95460.34;10305543;28;2067;-67
2023/06/19 04:08:51;;;;;;;;;;;;;;;22.72;40.57;95464.53;10304683;28;1959;-68
2023/06/19 04:13:51;;;;;;;;;;;;;;;22.71;40.49;95458.47;10305619;28;2024;-67
2023/06/19 04:18:52;;;;;;;;;;;;;;;22.70;40.92;95464.03;10303577;28;1997;-68
2023/06/19 04:23:52;;;;;;;;;;;;;;;22.71;40.99;95481.47;10306497;28;2055;-67
2023/06/19 04:28:52;;;;;;;;;;;;;;;22.72;41.06;95480.38;10302116;28;2023;-67
2023/06/19 04:33:54;;;;;;;;;;;;;;;22.73;40.70;95489.91;10300303;28;1984;-68
2023/06/19 04:38:55;;;;;;;;;;;;;;;22.76;41.12;95490.09;10302087;28;2000;-68
2023/06/19 04:43:55;;;;;;;;;;;;;;;22.77;41.14;95489.03;10305895;28;1880;-68
2023/06/19 04:48:55;;;;;;;;;;;;;;;22.79;41.14;95501.94;10308408;28;2071;-68
2023/06/19 04:53:55;;;;;;;;;;;;;;;22.80;41.20;95525.41;10305376;28;2031;-68
2023/06/19 04:58:59;;;;;;;;;;;;;;;22.83;41.16;95524.06;10299241;28;2652;-67
2023/06/19 05:03:59;;;;;;;;;;;;;;;22.84;41.49;95522.97;10300648;28;2176;-68
2023/06/19 05:08:59;;;;;;;;;;;;;;;22.86;41.47;95532.16;10296449;28;1921;-68
2023/06/19 05:14:00;;;;;;;;;;;;;;;22.90;41.25;95532.38;10300753;28;2047;-67
2023/06/19 05:19:00;;;;;;;;;;;;;;;22.88;41.73;95530.03;10303420;28;1931;-68
2023/06/19 05:24:00;;;;;;;;;;;;;;;22.88;42.38;95535.31;10303555;28;1992;-67
2023/06/19 05:29:02;;;;;;;;;;;;;;;22.89;42.62;95546.66;10301686;28;2068;-67
2023/06/19 05:34:02;;;;;;;;;;;;;;;22.86;43.35;95544.59;10302250;28;2190;-68
2023/06/19 05:39:02;;;;;;;;;;;;;;;22.89;43.33;95549.31;10306207;28;1960;-68
2023/06/19 05:44:02;;;;;;;;;;;;;;;22.91;43.49;95560.38;10304432;28;4468;-68
2023/06/19 05:49:03;;;;;;;;;;;;;;;22.90;43.51;95567.50;10306161;28;1976;-68
2023/06/19 05:54:03;;;;;;;;;;;;;;;22.91;43.45;95571.75;10300890;28;2225;-68
2023/06/19 05:59:04;;;;;;;;;;;;;;;22.93;43.18;95579.38;10297857;28;1963;-66
2023/06/19 06:04:04;;;;;;;;;;;;;;;22.94;42.90;95575.63;10303824;28;2447;-66
2023/06/19 06:09:05;;;;;;;;;;;;;;;22.95;42.49;95571.94;10294945;28;1991;-66
2023/06/19 06:14:05;;;;;;;;;;;;;;;23.01;42.25;95578.69;10294461;28;1932;-66
2023/06/19 06:19:06;;;;;;;;;;;;;;;23.04;41.86;95591.34;10295903;28;1983;-64
2023/06/19 06:24:06;;;;;;;;;;;;;;;23.05;42.15;95592.88;10298975;28;1893;-65
2023/06/19 06:29:06;;;;;;;;;;;;;;;23.08;41.75;95597.59;10292807;28;2016;-65
2023/06/19 06:34:06;;;;;;;;;;;;;;;23.09;41.83;95599.94;10295718;28;1941;-65
2023/06/19 06:39:07;;;;;;;;;;;;;;;23.11;41.49;95615.50;10299803;28;2004;-64
2023/06/19 06:44:07;;;;;;;;;;;;;;;23.13;41.75;95616.00;10294904;28;1984;-67
2023/06/19 06:49:07;;;;;;;;;;;;;;;23.15;41.86;95619.94;10299259;28;2289;-67
2023/06/19 06:54:07;;;;;;;;;;;;;;;23.16;41.65;95624.13;10304153;28;1868;-67
2023/06/19 06:59:08;;;;;;;;;;;;;;;23.19;41.90;95630.69;10299793;28;1986;-66
2023/06/19 07:04:08;;;;;;;;;;;;;;;23.21;41.85;95636.47;10299510;28;2013;-67
2023/06/19 07:09:09;;;;;;;;;;;;;;;23.22;42.05;95644.13;10301121;28;1972;-66
2023/06/19 07:14:09;;;;;;;;;;;;;;;23.22;41.74;95646.00;10316238;28;1991;-67
2023/06/19 07:19:09;;;;;;;;;;;;;;;23.23;41.68;95636.97;10298674;28;1970;-67
2023/06/19 07:24:10;;;;;;;;;;;;;;;23.26;41.88;95636.41;10287864;28;2158;-66
2023/06/19 07:29:10;;;;;;;;;;;;;;;23.26;41.54;95641.69;10303203;28;1921;-66
2023/06/19 07:34:10;;;;;;;;;;;;;;;23.27;41.61;95646.66;10299704;28;1952;-66
2023/06/19 07:39:11;;;;;;;;;;;;;;;23.28;41.40;95644.81;10288767;28;2125;-66
2023/06/19 07:44:11;;;;;;;;;;;;;;;23.29;41.56;95644.50;10297262;28;4592;-66
2023/06/19 07:49:11;;;;;;;;;;;;;;;23.30;41.85;95647.94;10305652;28;1948;-66
2023/06/19 07:54:12;;;;;;;;;;;;;;;23.31;41.76;95652.16;10282567;28;2080;-65
2023/06/19 07:59:13;;;;;;;;;;;;;;;23.33;41.81;95652.66;10299701;28;2023;-66
2023/06/19 08:04:14;;;;;;;;;;;;;;;23.33;41.56;95657.97;10302481;28;1991;-66
2023/06/19 08:09:14;;;;;;;;;;;;;;;23.35;41.60;95653.16;10289009;28;1972;-65
2023/06/19 08:14:15;;;;;;;;;;;;;;;23.37;41.76;95664.22;10285085;28;2013;-65
2023/06/19 08:19:16;;;;;;;;;;;;;;;23.38;41.72;95652.59;10298032;28;2219;-65
2023/06/19 08:24:16;;;;;;;;;;;;;;;23.39;41.85;95662.06;10299492;28;1830;-65
2023/06/19 08:29:17;;;;;;;;;;;;;;;23.39;41.67;95654.94;10300684;28;1944;-65
2023/06/19 08:34:18;;;;;;;;;;;;;;;23.41;41.81;95662.59;10296013;28;1896;-66
2023/06/19 08:39:20;;;;;;;;;;;;;;;23.41;42.11;95654.66;10299995;28;2043;-66
2023/06/19 08:44:20;;;;;;;;;;;;;;;23.43;41.96;95649.88;10302652;28;4365;-66
2023/06/19 08:49:20;;;;;;;;;;;;;;;23.44;41.75;95646.13;10278912;28;1990;-66
2023/06/19 08:54:20;;;;;;;;;;;;;;;23.45;41.83;95637.13;10290641;28;1945;-65
2023/06/19 08:59:21;;;;;;;;;;;;;;;23.47;41.92;95636.81;10305106;28;1455;-66
2023/06/19 09:04:26;;;;;;;;;;;;;;;23.47;42.11;95637.63;10304576;28;1437;-65
2023/06/19 09:09:26;;;;;;;;;;;;;;;23.49;42.13;95642.59;10293915;28;2064;-62
2023/06/19 09:14:36;;;;;;;;;;;;;;;23.51;42.15;95645.75;10297866;28;1980;-64
2023/06/19 09:19:37;;;;;;;;;;;;;;;23.51;42.35;95646.53;10295800;28;1976;-64
2023/06/19 09:24:38;;;;;;;;;;;;;;;23.53;42.33;95640.94;10288640;28;2216;-64
2023/06/19 09:29:38;;;;;;;;;;;;;;;23.55;42.34;95639.56;10295938;28;1993;-63
2023/06/19 09:34:39;;;;;;;;;;;;;;;23.55;42.20;95634.28;10297113;28;1955;-64
2023/06/19 09:39:39;;;;;;;;;;;;;;;23.58;42.23;95643.47;10295379;28;2400;-66
2023/06/19 09:44:40;;;;;;;;;;;;;;;23.58;42.40;95638.97;10293701;28;4546;-66
2023/06/19 09:49:41;;;;;;;;;;;;;;;23.60;42.38;95636.00;10297648;28;2041;-66
2023/06/19 09:54:41;;;;;;;;;;;;;;;23.61;42.39;95638.38;10284243;28;1937;-66
2023/06/19 09:59:41;;;;;;;;;;;;;;;23.62;42.98;95637.28;10296609;28;1995;-65
2023/06/19 10:04:45;;;;;;;;;;;;;;;23.66;43.16;95632.97;10281989;28;1930;-63
2023/06/19 10:10:01;;;;;;;;;;;;;;;23.68;43.24;95636.09;10292615;28;2230;-65
2023/06/19 10:15:08;;;;;;;;;;;;;;;23.70;43.09;95627.91;10300743;28;1916;-64
2023/06/19 10:20:17;;;;;;;;;;;;;;;23.71;43.35;95627.59;10301273;28;2173;-64
2023/06/19 10:25:22;;;;;;;;;;;;;;;23.72;43.50;95623.84;10300585;28;1861;-64
2023/06/19 10:30:22;;;;;;;;;;;;;;;23.73;43.48;95625.44;10301119;28;1953;-64
2023/06/19 10:35:24;;;;;;;;;;;;;;;23.77;43.38;95626.41;10304670;28;2455;-64
2023/06/19 10:40:24;;;;;;;;;;;;;;;23.78;43.69;95616.63;10292839;28;1984;-63
2023/06/19 10:45:28;;;;;;;;;;;;;;;23.78;43.47;95617.38;10303979;28;4491;-63
2023/06/19 10:50:28;;;;;;;;;;;;;;;23.79;43.46;95610.22;10292664;28;2034;-64
2023/06/19 10:55:28;;;;;;;;;;;;;;;23.79;44.00;95613.66;10288129;28;2095;-63
2023/06/19 11:00:30;;;;;;;;;;;;;;;23.81;43.85;95603.56;10301485;28;1975;-63
2023/06/19 11:05:30;;;;;;;;;;;;;;;23.79;43.76;95592.47;10296257;28;1944;-63
2023/06/19 11:10:30;;;;;;;;;;;;;;;23.80;43.68;95575.50;10300694;28;1974;-63
2023/06/19 11:15:31;;;;;;;;;;;;;;;23.81;43.35;95577.09;10304651;28;1967;-63
2023/06/19 11:20:31;;;;;;;;;;;;;;;23.81;43.36;95578.94;10285935;28;1960;-63
2023/06/19 11:25:35;;;;;;;;;;;;;;;23.81;43.24;95574.44;10285215;28;2074;-63
2023/06/19 11:30:36;;;;;;;;;;;;;;;23.82;43.54;95569.94;10312534;28;2020;-63
2023/06/19 11:35:36;;;;;;;;;;;;;;;23.82;43.45;95565.41;10295847;28;2004;-63
2023/06/19 11:40:40;;;;;;;;;;;;;;;23.82;43.25;95570.69;10297617;28;4488;-63
2023/06/19 11:45:51;;;;;;;;;;;;;;;23.82;43.18;95560.09;10298755;28;2256;-63
2023/06/19 11:50:51;;;;;;;;;;;;;;;23.83;43.17;95553.75;10302248;28;2214;-63
2023/06/19 11:55:52;;;;;;;;;;;;;;;23.85;43.35;95554.22;10298963;28;1894;-64
2023/06/19 12:00:53;;;;;;;;;;;;;;;23.87;43.05;95556.56;10295946;28;1818;-64
2023/06/19 12:05:53;;;;;;;;;;;;;;;23.85;43.21;95543.66;10297662;28;1771;-64
2023/06/19 12:10:53;;;;;;;;;;;;;;;23.86;42.95;95549.72;10297069;28;1998;-64
2023/06/19 12:15:54;;;;;;;;;;;;;;;23.87;43.35;95546.78;10299758;28;2141;-64
2023/06/19 12:20:54;;;;;;;;;;;;;;;23.87;43.17;95546.78;10281038;28;2127;-62
2023/06/19 12:25:54;;;;;;;;;;;;;;;23.87;43.32;95541.47;10304896;28;1793;-64
2023/06/19 12:30:56;;;;;;;;;;;;;;;23.87;42.99;95538.84;10300908;28;1962;-64
2023/06/19 12:35:56;;;;;;;;;;;;;;;23.88;43.26;95535.13;10288504;28;1669;-64
2023/06/19 12:40:56;;;;;;;;;;;;;;;23.90;43.03;95529.50;10302945;28;4460;-64
2023/06/19 12:45:56;;;;;;;;;;;;;;;23.90;43.12;95521.56;10282512;28;1922;-64
2023/06/19 12:50:57;;;;;;;;;;;;;;;23.90;43.24;95516.28;10297356;28;1948;-63
2023/06/19 12:55:57;;;;;;;;;;;;;;;23.91;42.99;95515.97;10292757;28;1988;-65
2023/06/19 13:00:58;;;;;;;;;;;;;;;23.91;43.46;95512.53;10288788;28;2124;-65
2023/06/19 13:05:58;;;;;;;;;;;;;;;23.92;43.19;95512.25;10301007;28;1803;-65
2023/06/19 13:10:58;;;;;;;;;;;;;;;23.93;43.08;95508.50;10300173;28;1958;-65
2023/06/19 13:15:58;;;;;;;;;;;;;;;23.94;43.10;95515.38;10298373;28;2038;-65
2023/06/19 13:20:59;;;;;;;;;;;;;;;23.95;43.08;95502.91;10294123;28;2032;-65
2023/06/19 13:25:59;;;;;;;;;;;;;;;23.93;43.09;95497.13;10296450;28;2373;-64
2023/06/19 13:30:59;;;;;;;;;;;;;;;23.95;43.16;95500.25;10297457;28;1962;-65
2023/06/19 13:36:00;;;;;;;;;;;;;;;23.95;43.14;95495.75;10301225;28;1979;-65
2023/06/19 13:41:00;;;;;;;;;;;;;;;23.96;43.35;95499.19;10292818;28;4468;-65
2023/06/19 13:46:03;;;;;;;;;;;;;;;23.97;43.41;95495.44;10297127;28;1943;-63
2023/06/19 13:51:03;;;;;;;;;;;;;;;23.97;43.40;95484.84;10305752;28;2007;-65
2023/06/19 13:56:03;;;;;;;;;;;;;;;23.98;43.20;95486.44;10306278;28;1909;-65
2023/06/19 14:01:03;;;;;;;;;;;;;;;23.99;43.21;95485.34;10307088;28;1854;-64
2023/06/19 14:06:04;;;;;;;;;;;;;;;23.99;43.01;95485.34;10313661;28;1824;-65
2023/06/19 14:11:04;;;;;;;;;;;;;;;24.00;42.98;95477.13;10310195;28;1918;-65
2023/06/19 14:16:04;;;;;;;;;;;;;;;24.00;43.21;95461.22;10311759;28;1885;-64
2023/06/19 14:21:04;;;;;;;;;;;;;;;24.01;43.34;95467.28;10308681;28;2292;-65
2023/06/19 14:26:05;;;;;;;;;;;;;;;24.02;43.21;95448.47;10303598;28;1995;-65
2023/06/19 14:31:05;;;;;;;;;;;;;;;24.02;43.19;95447.69;10305514;28;2046;-65
2023/06/19 14:36:05;;;;;;;;;;;;;;;24.02;43.18;95432.59;10309400;28;1976;-65
2023/06/19 14:41:06;;;;;;;;;;;;;;;24.03;43.11;95434.16;10306778;28;4496;-66
2023/06/19 14:46:06;;;;;;;;;;;;;;;24.06;43.11;95427.50;10310166;28;2046;-66
2023/06/19 14:51:09;;;;;;;;;;;;;;;24.06;43.33;95432.78;10308989;28;2014;-65
2023/06/19 14:56:10;;;;;;;;;;;;;;;24.08;43.59;95431.41;10308699;28;1854;-67
2023/06/19 15:01:10;;;;;;;;;;;;;;;24.09;43.67;95442.78;10315641;28;1496;-66
2023/06/19 15:06:10;;;;;;;;;;;;;;;24.11;43.62;95441.38;10313472;28;1844;-67
2023/06/19 15:11:10;;;;;;;;;;;;;;;24.14;43.60;95446.06;10306621;28;1950;-67
2023/06/19 15:16:12;;;;;;;;;;;;;;;24.14;43.75;95445.28;10306183;28;2418;-67
2023/06/19 15:21:12;;;;;;;;;;;;;;;24.15;43.66;95444.97;10304734;28;1873;-66
2023/06/19 15:26:12;;;;;;;;;;;;;;;24.14;43.67;95429.41;10300816;28;1891;-67
2023/06/19 15:31:13;;;;;;;;;;;;;;;24.16;43.37;95430.66;10285380;28;1947;-67
2023/06/19 15:36:13;;;;;;;;;;;;;;;24.18;43.39;95431.16;10299625;28;1879;-67
2023/06/19 15:41:13;;;;;;;;;;;;;;;24.18;43.63;95420.56;10297927;28;4436;-66
2023/06/19 15:46:14;;;;;;;;;;;;;;;24.19;43.59;95421.34;10300185;28;1953;-65
2023/06/19 15:51:15;;;;;;;;;;;;;;;24.19;43.76;95422.09;10296944;28;1977;-65
2023/06/19 15:56:15;;;;;;;;;;;;;;;24.21;43.35;95422.56;10298684;28;1987;-65
2023/06/19 16:01:15;;;;;;;;;;;;;;;24.21;43.47;95409.34;10268798;28;2029;-65
2023/06/19 16:06:15;;;;;;;;;;;;;;;24.21;43.67;95406.69;10293049;28;1835;-65
2023/06/19 16:11:16;;;;;;;;;;;;;;;24.22;43.90;95404.81;10300427;28;2528;-67
2023/06/19 16:16:16;;;;;;;;;;;;;;;24.22;43.96;95388.94;10295785;28;1864;-67
2023/06/19 16:21:17;;;;;;;;;;;;;;;24.23;44.19;95391.28;10292598;28;1858;-67
2023/06/19 16:26:17;;;;;;;;;;;;;;;24.24;43.87;95398.16;10296487;28;1885;-67
2023/06/19 16:31:18;;;;;;;;;;;;;;;24.24;44.15;95392.84;10294463;28;1887;-67
2023/06/19 16:36:19;;;;;;;;;;;;;;;24.25;44.02;95394.41;10293077;28;1891;-67
2023/06/19 16:41:20;;;;;;;;;;;;;;;24.27;43.85;95396.75;10277145;28;4444;-66
2023/06/19 16:46:20;;;;;;;;;;;;;;;24.29;44.09;95404.41;10291922;28;2329;-66
2023/06/19 16:51:21;;;;;;;;;;;;;;;24.29;44.01;95415.00;10293735;28;1942;-67
2023/06/19 16:56:21;;;;;;;;;;;;;;;24.28;43.85;95398.31;10312102;28;1895;-67
2023/06/19 17:01:21;;;;;;;;;;;;;;;24.29;43.85;95404.41;10294258;28;1930;-66
2023/06/19 17:06:21;;;;;;;;;;;;;;;24.29;43.79;95407.03;10299936;28;1874;-66
2023/06/19 17:11:22;;;;;;;;;;;;;;;24.30;43.91;95419.22;10292028;28;1973;-66
2023/06/19 17:16:22;;;;;;;;;;;;;;;24.29;43.80;95420.28;10292470;28;1837;-66
2023/06/19 17:21:22;;;;;;;;;;;;;;;24.29;43.51;95426.38;10296832;28;1875;-68
2023/06/19 17:26:22;;;;;;;;;;;;;;;24.30;43.66;95427.16;10293613;28;2042;-67
2023/06/19 17:31:23;;;;;;;;;;;;;;;24.31;43.43;95436.66;10289119;28;1914;-68
2023/06/19 17:36:23;;;;;;;;;;;;;;;24.31;43.74;95434.00;10294202;28;1929;-64
2023/06/19 17:41:24;;;;;;;;;;;;;;;24.33;43.90;95434.47;10301907;28;4546;-64
2023/06/19 17:46:24;;;;;;;;;;;;;;;24.34;43.99;95438.72;10298105;28;1979;-64
2023/06/19 17:51:24;;;;;;;;;;;;;;;24.32;43.91;95431.03;10295726;28;1965;-64
2023/06/19 17:56:25;;;;;;;;;;;;;;;24.33;44.09;95431.84;10296416;28;2024;-64
2023/06/19 18:01:25;;;;;;;;;;;;;;;24.33;44.25;95431.84;10297747;28;1958;-63
2023/06/19 18:06:25;;;;;;;;;;;;;;;24.34;44.38;95430.75;10294984;28;2408;-64
2023/06/19 18:11:25;;;;;;;;;;;;;;;24.37;44.50;95432.78;10297509;28;1992;-63
2023/06/19 18:16:28;;;;;;;;;;;;;;;24.40;44.26;95426.91;10297186;28;1994;-63
2023/06/19 18:21:29;;;;;;;;;;;;;;;24.44;44.81;95425.94;10293982;28;1891;-61
2023/06/19 18:26:30;;;;;;;;;;;;;;;24.48;45.53;95418.19;10292922;28;1888;-61
2023/06/19 18:31:30;;;;;;;;;;;;;;;24.49;45.81;95415.22;10293219;28;2082;-64
2023/06/19 18:36:31;;;;;;;;;;;;;;;24.51;45.57;95409.63;10302046;28;1911;-64
2023/06/19 18:41:32;;;;;;;;;;;;;;;24.54;45.39;95419.63;10286574;28;4503;-63
2023/06/19 18:46:32;;;;;;;;;;;;;;;24.57;45.17;95434.88;10293699;28;1882;-66
2023/06/19 18:51:32;;;;;;;;;;;;;;;24.57;44.50;95442.84;10298972;28;2144;-65
2023/06/19 18:56:32;;;;;;;;;;;;;;;24.53;44.34;95441.88;10288572;28;1962;-66
2023/06/19 19:01:33;;;;;;;;;;;;;;;24.52;44.06;95435.03;10298121;28;2312;-66
2023/06/19 19:06:33;;;;;;;;;;;;;;;24.53;43.49;95439.25;10296542;28;1877;-66
2023/06/19 19:11:33;;;;;;;;;;;;;;;24.51;43.67;95449.38;10296110;28;1956;-65
2023/06/19 19:16:33;;;;;;;;;;;;;;;24.50;43.80;95450.47;10297823;28;1889;-65
2023/06/19 19:21:34;;;;;;;;;;;;;;;24.49;43.68;95456.84;10301325;28;1898;-65
2023/06/19 19:26:34;;;;;;;;;;;;;;;24.49;43.74;95472.72;10302773;28;1874;-64
2023/06/19 19:31:34;;;;;;;;;;;;;;;24.49;43.93;95483.34;10301969;28;2050;-65
2023/06/19 19:36:35;;;;;;;;;;;;;;;24.48;43.86;95489.72;10285907;28;1870;-65
2023/06/19 19:41:35;;;;;;;;;;;;;;;24.49;44.10;95489.41;10302777;28;4527;-65
2023/06/19 19:46:35;;;;;;;;;;;;;;;24.49;44.43;95493.94;10300590;28;1963;-65
2023/06/19 19:51:35;;;;;;;;;;;;;;;24.48;44.49;95493.19;10295901;28;1937;-65
2023/06/19 19:56:36;;;;;;;;;;;;;;;24.50;44.45;95511.41;10301526;28;1966;-66
2023/06/19 20:01:36;;;;;;;;;;;;;;;24.49;44.75;95507.97;10305645;28;1862;-65
2023/06/19 20:06:36;;;;;;;;;;;;;;;24.50;44.30;95503.47;10300269;28;1905;-66
2023/06/19 20:11:37;;;;;;;;;;;;;;;24.50;44.72;95503.47;10301111;28;1946;-66
2023/06/19 20:16:37;;;;;;;;;;;;;;;24.50;44.71;95498.94;10306378;28;1876;-65
2023/06/19 20:21:38;;;;;;;;;;;;;;;24.50;44.71;95500.81;10299813;28;1898;-67
2023/06/19 20:26:39;;;;;;;;;;;;;;;24.50;44.95;95501.59;10301735;28;2108;-67
2023/06/19 20:31:39;;;;;;;;;;;;;;;24.51;44.92;95505.00;10289710;28;1915;-67
2023/06/19 20:36:39;;;;;;;;;;;;;;;24.51;44.95;95515.59;10295334;28;1904;-68
2023/06/19 20:41:40;;;;;;;;;;;;;;;24.52;44.99;95511.88;10299902;28;4534;-67
2023/06/19 20:46:40;;;;;;;;;;;;;;;24.51;45.04;95523.56;10284767;28;2082;-66
2023/06/19 20:51:40;;;;;;;;;;;;;;;24.50;45.16;95522.81;10297566;28;2298;-67
2023/06/19 20:56:41;;;;;;;;;;;;;;;24.50;44.89;95525.44;10295843;28;1947;-68
2023/06/19 21:01:41;;;;;;;;;;;;;;;24.51;44.95;95528.84;10295614;28;1910;-67
2023/06/19 21:06:41;;;;;;;;;;;;;;;24.50;45.13;95536.03;10303327;28;1890;-65
2023/06/19 21:11:41;;;;;;;;;;;;;;;24.52;45.32;95578.13;10296639;28;1910;-65
2023/06/19 21:16:42;;;;;;;;;;;;;;;24.52;44.77;95581.56;10300513;28;2296;-65
2023/06/19 21:21:42;;;;;;;;;;;;;;;24.52;44.85;95588.72;10300022;28;1891;-66
2023/06/19 21:26:42;;;;;;;;;;;;;;;24.52;44.67;95586.09;10294825;28;1982;-67
2023/06/19 21:31:43;;;;;;;;;;;;;;;24.53;44.81;95603.53;10293953;28;1891;-67
2023/06/19 21:36:43;;;;;;;;;;;;;;;24.44;44.00;95600.81;10298604;28;1915;-66
2023/06/19 21:41:44;;;;;;;;;;;;;;;24.35;43.44;95601.84;10296016;28;4641;-67
2023/06/19 21:46:44;;;;;;;;;;;;;;;24.25;42.92;95602.88;10298532;28;2082;-67
2023/06/19 21:51:44;;;;;;;;;;;;;;;24.24;42.59;95614.53;10297523;28;2316;-66
2023/06/19 21:56:45;;;;;;;;;;;;;;;24.10;43.15;95621.75;10292271;28;1911;-67
2023/06/19 22:01:48;;;;;;;;;;;;;;;24.24;43.33;95615.34;10292184;28;1970;-66
2023/06/19 22:06:49;;;;;;;;;;;;;;;24.28;43.73;95609.44;10298853;28;1921;-66
2023/06/19 22:11:49;;;;;;;;;;;;;;;24.31;43.98;95606.97;10299884;28;1911;-66
2023/06/19 22:16:49;;;;;;;;;;;;;;;24.34;44.15;95592.34;10303926;28;1886;-66
2023/06/19 22:21:49;;;;;;;;;;;;;;;24.36;44.43;95559.16;10302704;28;1939;-66
2023/06/19 22:26:50;;;;;;;;;;;;;;;24.39;45.00;95526.78;10291310;28;1995;-66
2023/06/19 22:31:51;;;;;;;;;;;;;;;24.38;45.66;95479.41;10306787;28;1906;-66
2023/06/19 22:36:51;;;;;;;;;;;;;;;24.40;46.00;95430.31;10313264;28;1982;-66
2023/06/19 22:41:51;;;;;;;;;;;;;;;24.41;46.06;95397.44;10302367;28;4583;-66
2023/06/19 22:46:51;;;;;;;;;;;;;;;24.42;46.25;95422.81;10309990;28;2381;-66
2023/06/19 22:51:52;;;;;;;;;;;;;;;24.42;46.78;95469.75;10313372;28;1992;-66
2023/06/19 22:56:52;;;;;;;;;;;;;;;24.43;46.77;95426.25;10308162;28;2125;-66
2023/06/19 23:01:53;;;;;;;;;;;;;;;24.43;46.89;95407.72;10304359;28;1953;-66
2023/06/19 23:06:53;;;;;;;;;;;;;;;24.44;46.93;95409.28;10290116;28;1916;-66
2023/06/19 23:11:54;;;;;;;;;;;;;;;24.43;47.00;95399.78;10304195;28;1914;-66
2023/06/19 23:16:54;;;;;;;;;;;;;;;24.44;47.04;95388.84;10310158;28;1848;-66
2023/06/19 23:21:55;;;;;;;;;;;;;;;24.43;47.07;95389.16;10305230;28;1850;-66
2023/06/19 23:26:55;;;;;;;;;;;;;;;24.43;46.90;95375.94;10305735;28;1800;-66
2023/06/19 23:31:55;;;;;;;;;;;;;;;24.44;46.55;95380.91;10312772;28;1973;-66
2023/06/19 23:36:55;;;;;;;;;;;;;;;24.45;46.48;95379.84;10311137;28;1874;-64
2023/06/19 23:41:56;;;;;;;;;;;;;;;24.44;46.80;95369.56;10309048;28;4534;-66
2023/06/19 23:46:56;;;;;;;;;;;;;;;24.46;46.96;95367.38;10309655;28;1894;-66
2023/06/19 23:51:56;;;;;;;;;;;;;;;24.47;46.58;95390.13;10310738;28;1883;-66
2023/06/19 23:56:57;;;;;;;;;;;;;;;24.47;46.70;95400.72;10302299;28;1926;-67
